Time;durP1;ratioP1;P1;durP2;ratioP2;P2;SDS_P1;SDS_P2;PMS_P1;PMS_P2;Temp;Humidity;BMP_temperature;BMP_pressure;BME280_temperature;BME280_humidity;BME280_pressure;Samples;Min_cycle;Max_cycle;Signal;HPM_P1;HPM_P2
2021/10/19 05:13:20;;;;;;;29.95;14.52;;;;;;;5.02;79.84;100927.78;5005163;28;106542;-64
2021/10/19 05:15:45;;;;;;;25.92;14.95;;;;;;;5.03;80.44;100916.28;5005050;28;105846;-63
2021/10/19 05:18:10;;;;;;;28.85;16.80;;;;;;;5.05;80.57;100914.34;5004612;28;105703;-64
2021/10/19 05:20:36;;;;;;;25.23;15.35;;;;;;;5.14;80.72;100904.91;5004351;28;105909;-64
2021/10/19 05:23:01;;;;;;;32.15;17.30;;;;;;;5.18;80.74;100913.41;5004455;28;106003;-64
2021/10/19 05:25:26;;;;;;;73.28;47.00;;;;;;;5.24;80.91;100910.31;5004781;28;106277;-64
2021/10/19 05:27:52;;;;;;;59.83;37.53;;;;;;;5.30;80.97;100903.72;5004813;28;106091;-64
2021/10/19 05:30:17;;;;;;;54.17;40.20;;;;;;;5.37;80.92;100907.56;5004004;28;109561;-65
2021/10/19 05:32:43;;;;;;;50.47;38.47;;;;;;;5.38;80.51;100899.50;5002239;28;106345;-63
2021/10/19 05:35:09;;;;;;;24.85;16.42;;;;;;;5.42;80.87;100895.66;5004506;28;106357;-62
2021/10/19 05:37:35;;;;;;;24.63;14.02;;;;;;;5.50;81.02;100883.69;5004552;28;106302;-65
2021/10/19 05:40:00;;;;;;;18.50;12.38;;;;;;;5.58;80.97;100884.75;5003887;28;105952;-63
2021/10/19 05:42:25;;;;;;;23.17;12.88;;;;;;;5.68;81.18;100891.97;5003804;28;105913;-63
2021/10/19 05:44:51;;;;;;;18.80;10.18;;;;;;;5.74;81.41;100900.25;5004651;28;105877;-63
2021/10/19 05:47:16;;;;;;;19.95;11.13;;;;;;;5.83;81.11;100893.38;5002342;28;105911;-66
2021/10/19 05:49:41;;;;;;;23.73;11.10;;;;;;;5.90;81.11;100905.13;5001195;28;106750;-63
2021/10/19 05:52:07;;;;;;;17.60;9.82;;;;;;;5.97;81.34;100912.59;5022729;27;106521;-69
2021/10/19 05:54:32;;;;;;;15.98;9.07;;;;;;;6.02;80.82;100916.59;5005923;27;106147;-65
2021/10/19 05:56:58;;;;;;;17.75;9.05;;;;;;;6.06;80.74;100918.00;5004605;28;106112;-65
2021/10/19 05:59:23;;;;;;;16.35;9.52;;;;;;;6.09;80.74;100922.22;5004186;28;106308;-66
2021/10/19 06:01:49;;;;;;;15.60;8.98;;;;;;;6.09;80.49;100923.06;5003813;28;106082;-65
2021/10/19 06:04:14;;;;;;;15.10;10.25;;;;;;;6.13;80.79;100914.91;5005283;28;105921;-67
2021/10/19 06:06:40;;;;;;;15.07;8.98;;;;;;;6.22;80.59;100924.72;5004143;28;106256;-68
2021/10/19 06:09:06;;;;;;;14.98;9.30;;;;;;;6.29;80.64;100917.13;5004462;28;106701;-68
2021/10/19 06:11:32;;;;;;;15.00;8.82;;;;;;;6.38;80.82;100933.13;5003491;28;106064;-69
2021/10/19 06:13:57;;;;;;;14.32;8.93;;;;;;;6.50;80.85;100919.84;5004567;28;106590;-68
2021/10/19 06:16:23;;;;;;;16.92;8.77;;;;;;;6.64;80.66;100927.47;5004266;28;105849;-70
2021/10/19 06:18:48;;;;;;;14.45;8.57;;;;;;;6.79;81.06;100917.41;5003523;28;106050;-66
2021/10/19 06:21:15;;;;;;;14.48;8.57;;;;;;;7.00;80.81;100913.94;5003425;28;106165;-66
2021/10/19 06:23:40;;;;;;;20.67;8.80;;;;;;;7.20;80.67;100922.84;4996628;28;105881;-65
2021/10/19 06:26:06;;;;;;;15.63;8.60;;;;;;;7.42;81.01;100933.31;4991005;28;105842;-67
2021/10/19 06:28:31;;;;;;;14.20;7.82;;;;;;;7.66;80.77;100923.38;4990611;28;105855;-66
2021/10/19 06:30:57;;;;;;;11.85;7.68;;;;;;;7.91;80.86;100917.63;4990332;28;105951;-68
2021/10/19 06:33:22;;;;;;;13.77;8.57;;;;;;;8.13;80.23;100927.16;4991304;28;105861;-66
2021/10/19 06:35:47;;;;;;;21.95;11.73;;;;;;;8.34;80.75;100926.22;4990776;28;105892;-67
2021/10/19 06:38:13;;;;;;;13.60;7.65;;;;;;;8.48;79.99;100924.19;4990090;28;106055;-66
2021/10/19 06:40:38;;;;;;;11.32;6.82;;;;;;;8.66;79.86;100922.50;4990496;28;105787;-65
2021/10/19 06:43:05;;;;;;;10.77;7.53;;;;;;;8.91;79.56;100914.94;4991273;28;105922;-70
2021/10/19 06:45:31;;;;;;;11.77;7.63;;;;;;;9.18;80.00;100926.66;4990169;28;105805;-64
2021/10/19 06:47:56;;;;;;;10.35;6.85;;;;;;;9.48;79.85;100929.06;4989693;28;106196;-67
2021/10/19 06:50:21;;;;;;;12.13;7.50;;;;;;;9.77;79.36;100922.84;4990593;28;106574;-68
2021/10/19 06:52:47;;;;;;;12.13;6.95;;;;;;;10.00;78.80;100914.44;4991377;28;106091;-66
2021/10/19 06:55:12;;;;;;;9.73;6.50;;;;;;;10.19;78.44;100921.47;4990333;28;106362;-70
2021/10/19 06:57:42;;;;;;;11.95;7.35;;;;;;;10.33;77.49;100930.78;4990523;28;106231;-70
2021/10/19 07:00:10;;;;;;;13.38;6.57;;;;;;;10.47;77.24;100924.09;4989621;28;106003;-66
2021/10/19 07:02:35;;;;;;;10.02;7.00;;;;;;;10.64;76.27;100927.78;4990710;28;106257;-71
2021/10/19 07:05:00;;;;;;;8.77;5.78;;;;;;;10.75;76.36;100932.88;4990381;28;106175;-72
2021/10/19 07:07:26;;;;;;;10.07;6.15;;;;;;;10.97;75.79;100942.22;4990310;28;105839;-74
2021/10/19 07:09:51;;;;;;;8.38;5.72;;;;;;;11.22;75.83;100939.75;4990104;28;106047;-72
2021/10/19 07:12:16;;;;;;;10.68;5.90;;;;;;;11.55;75.66;100942.63;4990231;28;106073;-69
2021/10/19 07:14:43;;;;;;;10.88;5.57;;;;;;;11.81;74.79;100939.91;4989951;28;106235;-71
2021/10/19 07:17:09;;;;;;;11.20;5.93;;;;;;;12.10;74.63;100943.25;4989778;28;105947;-72
2021/10/19 07:19:37;;;;;;;7.63;4.88;;;;;;;12.43;74.23;100949.50;4989922;28;105894;-67
2021/10/19 07:22:03;;;;;;;7.60;4.90;;;;;;;12.62;73.49;100952.88;4990839;28;106123;-72
2021/10/19 07:24:28;;;;;;;7.95;4.53;;;;;;;12.75;72.13;100953.19;4990059;28;106048;-67
2021/10/19 07:26:53;;;;;;;6.53;5.05;;;;;;;12.82;71.76;100954.22;4989866;28;106681;-68
2021/10/19 07:29:19;;;;;;;7.53;4.65;;;;;;;12.92;71.24;100958.59;4989817;28;105811;-68
2021/10/19 07:31:44;;;;;;;9.95;5.22;;;;;;;12.93;70.89;100961.09;4990325;28;106000;-69
2021/10/19 07:34:11;;;;;;;6.95;4.38;;;;;;;13.06;70.43;100957.06;4989540;28;106367;-67
2021/10/19 07:36:36;;;;;;;9.40;5.47;;;;;;;13.11;69.69;100952.03;4988017;28;107410;-70
2021/10/19 07:39:01;;;;;;;9.30;4.93;;;;;;;13.20;69.23;100948.34;4972523;28;106149;-67
2021/10/19 07:41:27;;;;;;;8.80;4.43;;;;;;;13.23;68.78;100933.81;4969925;28;106150;-69
2021/10/19 07:43:52;;;;;;;7.88;4.05;;;;;;;13.32;68.75;100938.97;4968585;28;106188;-68
2021/10/19 07:46:17;;;;;;;7.22;4.50;;;;;;;13.31;67.88;100926.63;4968550;28;106060;-68
2021/10/19 07:48:43;;;;;;;9.30;4.70;;;;;;;13.36;67.10;100918.94;4968919;28;106451;-67
2021/10/19 07:51:08;;;;;;;8.57;5.07;;;;;;;13.40;67.05;100921.28;4969883;28;106079;-66
2021/10/19 07:53:33;;;;;;;7.97;4.45;;;;;;;13.39;66.33;100925.78;4969018;28;106437;-69
2021/10/19 07:55:58;;;;;;;9.82;4.40;;;;;;;13.36;66.00;100910.91;4969120;28;105989;-68
2021/10/19 07:58:24;;;;;;;9.75;4.53;;;;;;;13.39;65.73;100912.41;4969313;28;106582;-72
2021/10/19 08:00:49;;;;;;;8.57;5.10;;;;;;;13.46;65.13;100912.56;4970662;28;105935;-70
2021/10/19 08:03:15;;;;;;;9.02;4.05;;;;;;;13.60;65.09;100916.34;4969755;28;106190;-75
2021/10/19 08:05:42;;;;;;;6.35;4.38;;;;;;;13.86;65.11;100903.53;4969620;28;105942;-74
2021/10/19 08:08:12;;;;;;;6.32;3.80;;;;;;;14.53;65.07;100907.50;4969122;28;105829;-66
2021/10/19 08:10:40;;;;;;;5.90;3.80;;;;;;;15.76;64.92;100918.09;4969456;28;106103;-67
2021/10/19 08:13:08;;;;;;;7.88;3.90;;;;;;;17.21;63.69;100918.19;4968725;28;106137;-68
2021/10/19 08:15:34;;;;;;;6.03;3.17;;;;;;;18.92;62.02;100920.06;4974285;28;106664;-70
2021/10/19 08:18:00;;;;;;;5.43;3.60;;;;;;;20.61;58.85;100921.16;4988792;28;105867;-70
2021/10/19 08:20:25;;;;;;;7.13;3.88;;;;;;;21.96;55.17;100911.53;4989969;28;105811;-68
2021/10/19 08:22:51;;;;;;;7.78;3.67;;;;;;;22.04;51.46;100912.31;4988967;28;106255;-69
2021/10/19 08:25:17;;;;;;;8.32;3.70;;;;;;;21.40;49.86;100913.41;4988626;28;105948;-73
2021/10/19 08:27:44;;;;;;;5.57;3.28;;;;;;;21.07;50.79;100905.63;4989064;28;106311;-66
2021/10/19 08:30:11;;;;;;;5.78;2.90;;;;;;;21.00;48.67;100910.28;4989383;28;106048;-68
2021/10/19 08:32:36;;;;;;;7.20;3.80;;;;;;;21.01;48.79;100903.81;4988971;28;106205;-67
2021/10/19 08:35:03;;;;;;;7.22;4.15;;;;;;;21.59;46.40;100922.44;4988512;28;105962;-68
2021/10/19 08:37:28;;;;;;;7.47;4.20;;;;;;;22.54;47.30;100912.06;4988831;28;105833;-67
2021/10/19 08:39:53;;;;;;;6.40;3.30;;;;;;;24.53;45.27;100912.25;4989404;28;105949;-65
2021/10/19 08:42:22;;;;;;;9.32;3.38;;;;;;;26.30;41.49;100909.78;4988986;28;106127;-67
2021/10/19 08:44:47;;;;;;;4.95;2.88;;;;;;;27.17;37.25;100906.97;4988347;28;106057;-68
2021/10/19 08:47:14;;;;;;;3.60;2.28;;;;;;;27.08;35.48;100912.13;4988353;28;105998;-67
2021/10/19 08:49:40;;;;;;;6.93;3.00;;;;;;;27.09;33.69;100907.47;4989586;28;106276;-68
2021/10/19 08:52:05;;;;;;;4.72;2.05;;;;;;;26.22;32.57;100911.09;4988972;28;105966;-67
2021/10/19 08:54:31;;;;;;;3.80;1.83;;;;;;;25.23;31.68;100908.19;4987283;28;108095;-66
2021/10/19 08:56:56;;;;;;;4.53;2.17;;;;;;;24.56;32.66;100896.22;4987306;28;107383;-67
2021/10/19 08:59:23;;;;;;;4.28;2.00;;;;;;;23.97;32.03;100897.34;4989010;28;106608;-67
2021/10/19 09:01:53;;;;;;;6.03;3.60;;;;;;;23.82;33.10;100891.56;4988159;28;106284;-67
2021/10/19 09:04:18;;;;;;;8.23;3.40;;;;;;;23.94;32.55;100897.00;4987882;28;106560;-68
2021/10/19 09:06:44;;;;;;;8.85;3.58;;;;;;;25.60;32.67;100893.16;4987913;28;106057;-69
2021/10/19 09:09:13;;;;;;;5.65;3.38;;;;;;;27.98;29.99;100902.13;4988427;28;106127;-68
2021/10/19 09:11:41;;;;;;;4.57;2.47;;;;;;;29.26;27.02;100901.41;4988008;28;106161;-67
2021/10/19 09:14:07;;;;;;;6.85;3.00;;;;;;;30.47;25.07;100896.69;4987709;28;106224;-68
2021/10/19 09:16:42;;;;;;;4.93;2.40;;;;;;;32.02;22.76;100901.31;4986780;28;106203;-72
2021/10/19 09:19:09;;;;;;;4.13;2.50;;;;;;;33.85;22.02;100904.19;4986498;28;106687;-72
2021/10/19 09:21:35;;;;;;;6.32;2.45;;;;;;;34.67;20.35;100913.31;4987663;28;106236;-70
2021/10/19 09:24:27;;;;;;;5.03;1.88;;;;;;;34.23;18.61;100903.88;4987406;28;106721;-72
2021/10/19 09:27:01;;;;;;;4.28;2.70;;;;;;;33.76;18.58;100894.97;4987160;28;106018;-68
2021/10/19 09:29:29;;;;;;;5.47;3.05;;;;;;;33.88;18.42;100887.78;4988544;28;106413;-68
2021/10/19 09:31:58;;;;;;;7.47;3.22;;;;;;;34.37;17.82;100901.88;4988379;28;106247;-68
2021/10/19 09:34:29;;;;;;;4.07;2.67;;;;;;;34.44;17.46;100886.81;4987579;28;107950;-69
2021/10/19 09:36:54;;;;;;;2.90;1.98;;;;;;;35.33;17.15;100884.97;4987727;28;106803;-68
2021/10/19 09:39:32;;;;;;;3.53;2.08;;;;;;;36.12;16.51;100887.06;4988078;28;106086;-69
2021/10/19 09:41:57;;;;;;;4.30;2.42;;;;;;;37.28;16.14;100879.75;4987377;28;105809;-69
2021/10/19 09:44:23;;;;;;;3.85;2.00;;;;;;;37.99;15.12;100871.78;4987371;28;106163;-70
2021/10/19 09:46:49;;;;;;;8.25;2.67;;;;;;;38.82;14.55;100885.88;4987371;28;107002;-69
2021/10/19 09:49:14;;;;;;;3.63;2.25;;;;;;;38.55;14.64;100872.22;4987887;28;105977;-70
2021/10/19 09:51:40;;;;;;;5.55;2.50;;;;;;;39.05;14.44;100873.09;4987566;28;106107;-70
2021/10/19 09:54:10;;;;;;;4.10;2.35;;;;;;;39.15;13.93;100866.31;4986890;28;106281;-68
2021/10/19 09:56:37;;;;;;;4.85;2.33;;;;;;;37.37;14.47;100883.34;4987010;28;106121;-73
2021/10/19 09:59:03;;;;;;;6.80;2.20;;;;;;;37.62;14.76;100874.31;4989414;28;105970;-72
2021/10/19 10:01:29;;;;;;;5.35;2.28;;;;;;;37.63;14.81;100864.84;4991031;28;106178;-69
2021/10/19 10:03:55;;;;;;;4.82;2.22;;;;;;;38.51;14.15;100862.13;4990414;28;107098;-69
2021/10/19 10:06:21;;;;;;;3.63;2.17;;;;;;;38.93;13.83;100853.63;4990752;28;106332;-68
2021/10/19 10:08:47;;;;;;;3.75;2.50;;;;;;;38.88;13.65;100865.00;4991833;28;106282;-70
2021/10/19 10:11:13;;;;;;;3.25;2.08;;;;;;;38.10;13.68;100857.13;4990163;28;107216;-69
2021/10/19 10:13:39;;;;;;;4.93;2.38;;;;;;;37.31;14.58;100854.09;4990371;28;106173;-69
2021/10/19 10:16:10;;;;;;;3.33;2.00;;;;;;;36.81;14.82;100857.59;4990286;28;106375;-71
2021/10/19 10:18:36;;;;;;;6.78;2.38;;;;;;;36.12;15.10;100851.03;4991440;28;105853;-69
2021/10/19 10:21:16;;;;;;;4.28;2.03;;;;;;;35.39;15.01;100850.47;4990552;28;106162;-69
2021/10/19 10:23:42;;;;;;;3.78;2.05;;;;;;;35.07;15.33;100852.47;4990579;28;105995;-68
2021/10/19 10:26:20;;;;;;;3.28;1.98;;;;;;;36.01;14.98;100842.22;4989946;28;105871;-66
2021/10/19 10:28:45;;;;;;;4.03;2.10;;;;;;;36.69;14.39;100833.28;4990201;28;106057;-67
2021/10/19 10:31:18;;;;;;;5.32;2.33;;;;;;;37.38;13.78;100848.81;4989980;28;106123;-68
2021/10/19 10:33:47;;;;;;;3.50;1.67;;;;;;;37.93;13.87;100837.81;4977468;28;105956;-68
2021/10/19 10:36:15;;;;;;;3.90;2.22;;;;;;;38.44;13.10;100837.66;4969830;28;106042;-72
2021/10/19 10:38:57;;;;;;;5.05;1.83;;;;;;;38.12;13.56;100831.72;4970989;28;106449;-70
2021/10/19 10:41:23;;;;;;;4.68;2.13;;;;;;;38.86;12.94;100814.41;4970131;28;105933;-70
2021/10/19 10:44:00;;;;;;;4.88;1.95;;;;;;;39.94;12.46;100828.84;4969706;28;106168;-71
2021/10/19 10:46:25;;;;;;;3.17;2.00;;;;;;;40.60;12.17;100821.09;4969727;28;106539;-71
2021/10/19 10:48:54;;;;;;;4.57;2.10;;;;;;;40.45;12.00;100825.47;4970414;28;105946;-71
2021/10/19 10:51:31;;;;;;;4.73;2.33;;;;;;;40.19;12.00;100812.84;4969755;28;106381;-72
2021/10/19 10:53:57;;;;;;;3.95;2.08;;;;;;;40.18;12.16;100802.03;4970026;28;105908;-72
2021/10/19 10:56:22;;;;;;;8.82;2.53;;;;;;;40.75;11.99;100792.34;4969822;28;106412;-69
2021/10/19 10:58:49;;;;;;;3.97;2.08;;;;;;;41.31;11.48;100782.06;4970631;28;105986;-69
2021/10/19 11:01:28;;;;;;;5.55;2.55;;;;;;;41.65;11.19;100778.75;4969791;28;106292;-73
2021/10/19 11:04:07;;;;;;;3.83;2.20;;;;;;;42.28;10.93;100772.81;4969558;28;105865;-70
2021/10/19 11:06:33;;;;;;;6.75;3.38;;;;;;;42.58;10.92;100774.88;4969586;28;107209;-73
2021/10/19 11:09:04;;;;;;;5.65;2.83;;;;;;;42.53;10.61;100785.56;4970253;28;105985;-72
2021/10/19 11:11:37;;;;;;;3.35;2.28;;;;;;;42.06;10.69;100777.19;4969888;28;106086;-70
2021/10/19 11:14:07;;;;;;;3.13;2.00;;;;;;;42.26;10.56;100777.94;4969192;28;106592;-69
2021/10/19 11:16:44;;;;;;;4.07;2.30;;;;;;;41.88;10.92;100771.25;4970021;28;106254;-69
2021/10/19 11:19:25;;;;;;;4.82;2.50;;;;;;;42.39;10.78;100772.97;4970170;28;105960;-69
2021/10/19 11:21:54;;;;;;;5.72;2.47;;;;;;;42.39;10.47;100761.78;4969727;28;106216;-68
2021/10/19 11:24:22;;;;;;;5.95;3.33;;;;;;;43.54;10.27;100756.22;4969354;28;106341;-69
2021/10/19 11:26:48;;;;;;;7.38;2.85;;;;;;;43.60;10.01;100760.31;4969615;28;105908;-70
2021/10/19 11:29:14;;;;;;;4.63;1.88;;;;;;;42.60;10.43;100757.72;4970379;28;105995;-70
2021/10/19 11:31:40;;;;;;;3.92;1.98;;;;;;;42.56;10.63;100740.03;4969725;28;106748;-70
2021/10/19 11:34:07;;;;;;;5.13;2.05;;;;;;;42.53;10.26;100744.41;4969448;28;106631;-74
2021/10/19 11:36:34;;;;;;;3.05;2.00;;;;;;;42.32;10.10;100747.66;4969417;28;106431;-71
2021/10/19 11:39:05;;;;;;;4.07;2.10;;;;;;;41.70;10.79;100740.09;4970198;28;106591;-73
2021/10/19 11:41:31;;;;;;;4.07;2.20;;;;;;;41.58;10.90;100740.28;4969056;28;106253;-70
2021/10/19 11:44:01;;;;;;;3.33;1.98;;;;;;;42.32;10.72;100736.44;4968933;28;106744;-71
2021/10/19 11:46:30;;;;;;;6.60;2.80;;;;;;;42.07;10.64;100741.59;4969558;28;106066;-71
2021/10/19 11:49:02;;;;;;;4.73;2.67;;;;;;;42.48;10.16;100727.91;4968390;28;106205;-67
2021/10/19 11:51:28;;;;;;;14.75;12.35;;;;;;;43.27;10.16;100723.47;4969217;28;106254;-71
2021/10/19 11:53:56;;;;;;;3.38;2.35;;;;;;;44.28;9.74;100716.13;4968645;28;105829;-72
2021/10/19 11:56:22;;;;;;;4.72;2.65;;;;;;;44.57;9.36;100712.72;4968845;28;105967;-72
2021/10/19 11:58:59;;;;;;;4.88;2.78;;;;;;;43.84;9.79;100711.28;4969765;28;106312;-69
2021/10/19 12:01:25;;;;;;;4.82;2.33;;;;;;;43.78;9.90;100705.19;4968953;28;106320;-68
2021/10/19 12:03:55;;;;;;;4.38;2.58;;;;;;;43.26;10.00;100707.03;4968540;28;106328;-68
2021/10/19 12:06:26;;;;;;;6.18;2.58;;;;;;;42.59;10.03;100702.88;4968511;28;106427;-68
2021/10/19 12:08:52;;;;;;;6.75;2.83;;;;;;;42.58;10.19;100690.88;4969647;28;106432;-67
2021/10/19 12:11:22;;;;;;;4.60;2.40;;;;;;;41.89;10.52;100688.16;4967948;28;106345;-70
2021/10/19 12:13:59;;;;;;;5.18;2.50;;;;;;;40.89;11.18;100668.16;4968435;28;106829;-71
2021/10/19 12:16:27;;;;;;;4.88;2.80;;;;;;;40.77;11.44;100664.31;4968464;28;105993;-69
2021/10/19 12:18:55;;;;;;;3.80;2.40;;;;;;;41.33;11.52;100667.88;4969016;28;106365;-70
2021/10/19 12:21:20;;;;;;;6.17;2.47;;;;;;;41.85;10.76;100671.28;4967785;28;106177;-71
2021/10/19 12:23:58;;;;;;;3.50;2.20;;;;;;;41.28;11.17;100666.22;4968807;28;105899;-70
2021/10/19 12:26:26;;;;;;;6.85;2.72;;;;;;;40.71;11.87;100659.38;4968686;28;106661;-71
2021/10/19 12:28:54;;;;;;;5.20;2.40;;;;;;;41.08;11.26;100662.59;4969446;28;106392;-70
2021/10/19 12:31:21;;;;;;;5.18;2.17;;;;;;;41.68;11.26;100653.00;4968217;28;105816;-69
2021/10/19 12:34:01;;;;;;;4.05;2.05;;;;;;;42.74;9.97;100654.31;4967997;28;106188;-69
2021/10/19 12:36:30;;;;;;;4.18;2.20;;;;;;;42.43;10.35;100650.66;4968324;28;106212;-69
2021/10/19 12:39:00;;;;;;;;;;;;;;;42.40;10.17;100648.59;4969476;28;105938;-69
2021/10/19 12:41:27;;;;;;;2.92;1.90;;;;;;;42.41;10.87;100643.81;4993478;28;106120;-71
2021/10/19 12:43:54;;;;;;;5.50;2.75;;;;;;;42.64;10.51;100638.19;5007862;28;106772;-72
2021/10/19 12:46:24;;;;;;;4.60;2.20;;;;;;;41.72;10.53;100633.47;5007631;28;105885;-72
2021/10/19 12:48:51;;;;;;;3.95;2.28;;;;;;;40.62;11.41;100622.50;5008236;28;105918;-72
2021/10/19 12:51:20;;;;;;;4.30;1.98;;;;;;;40.26;11.50;100616.88;5007891;28;105901;-70
2021/10/19 12:53:48;;;;;;;3.83;2.10;;;;;;;39.91;11.64;100620.41;5007169;28;105867;-70
2021/10/19 12:56:15;;;;;;;5.03;2.40;;;;;;;39.21;12.06;100616.94;5007839;28;106276;-70
2021/10/19 12:58:41;;;;;;;4.43;2.15;;;;;;;38.69;12.67;100618.63;5008269;28;105907;-71
2021/10/19 13:01:07;;;;;;;3.83;2.30;;;;;;;38.43;12.39;100608.66;5007949;28;106172;-69
2021/10/19 13:03:34;;;;;;;6.15;2.30;;;;;;;37.99;12.89;100605.66;5007498;28;106046;-65
2021/10/19 13:06:01;;;;;;;4.15;2.17;;;;;;;37.35;13.07;100601.47;5008048;28;105795;-66
2021/10/19 13:08:27;;;;;;;6.80;2.30;;;;;;;36.50;13.74;100597.84;5008506;28;105907;-66
2021/10/19 13:10:52;;;;;;;4.65;2.45;;;;;;;35.77;14.48;100591.31;5007641;28;106045;-66
2021/10/19 13:13:18;;;;;;;3.42;2.40;;;;;;;36.33;14.15;100598.78;5006692;28;109023;-68
2021/10/19 13:15:45;;;;;;;6.18;3.13;;;;;;;36.22;14.20;100587.22;5007898;28;105936;-68
2021/10/19 13:18:10;;;;;;;4.10;2.80;;;;;;;35.45;14.69;100589.97;5008385;28;105930;-69
2021/10/19 13:20:36;;;;;;;5.65;3.10;;;;;;;34.92;15.30;100588.00;5005325;28;106311;-65
2021/10/19 13:23:02;;;;;;;15.32;5.57;;;;;;;34.88;15.11;100600.88;5007266;28;105964;-69
2021/10/19 13:25:28;;;;;;;6.53;3.45;;;;;;;34.98;15.25;100601.69;5007625;28;105768;-70
2021/10/19 13:27:53;;;;;;;6.07;3.38;;;;;;;34.39;15.74;100595.44;5008728;28;105842;-69
2021/10/19 13:30:19;;;;;;;5.30;2.50;;;;;;;33.74;16.04;100594.16;5007093;28;106242;-69
2021/10/19 13:32:48;;;;;;;11.82;5.15;;;;;;;33.15;16.53;100594.22;5007241;28;106077;-70
2021/10/19 13:35:13;;;;;;;7.95;3.17;;;;;;;32.48;16.59;100598.47;5010234;28;106090;-67
2021/10/19 13:37:38;;;;;;;4.88;2.25;;;;;;;31.04;17.96;100588.91;5011962;28;105784;-69
2021/10/19 13:40:06;;;;;;;3.95;2.40;;;;;;;29.96;19.00;100595.69;5011210;28;106104;-71
2021/10/19 13:42:31;;;;;;;5.43;3.03;;;;;;;29.65;19.62;100582.28;5010545;28;105924;-69
2021/10/19 13:44:56;;;;;;;10.63;4.07;;;;;;;29.82;19.67;100592.81;5010793;28;106374;-68
2021/10/19 13:47:22;;;;;;;6.25;2.95;;;;;;;30.28;19.32;100599.75;5011876;28;105942;-69
2021/10/19 13:49:47;;;;;;;4.78;2.65;;;;;;;30.87;18.71;100580.31;5011222;28;105919;-69
2021/10/19 13:52:13;;;;;;;6.72;2.60;;;;;;;31.31;18.34;100584.59;5010398;28;105839;-69
2021/10/19 13:54:39;;;;;;;9.10;4.53;;;;;;;31.64;18.00;100592.88;5010909;28;106127;-70
2021/10/19 13:57:10;;;;;;;27.58;19.27;;;;;;;33.06;17.34;100583.13;5010847;28;106157;-69
2021/10/19 13:59:37;;;;;;;17.70;12.85;;;;;;;33.65;16.67;100588.56;5011229;28;105890;-71
2021/10/19 14:02:03;;;;;;;12.10;6.32;;;;;;;33.80;16.25;100586.56;5010113;28;105977;-70
2021/10/19 14:04:29;;;;;;;18.65;12.48;;;;;;;33.33;16.12;100581.41;5008869;28;107049;-66
2021/10/19 14:06:55;;;;;;;22.42;13.48;;;;;;;33.35;16.93;100588.25;5010845;28;105777;-65
2021/10/19 14:09:24;;;;;;;10.15;5.53;;;;;;;33.20;16.46;100583.06;5010997;28;105862;-67
2021/10/19 14:11:49;;;;;;;8.15;3.95;;;;;;;33.28;16.41;100574.06;5009958;28;106317;-69
2021/10/19 14:14:14;;;;;;;8.35;5.43;;;;;;;33.53;16.23;100569.84;5010350;28;110388;-71
2021/10/19 14:16:40;;;;;;;3.67;2.33;;;;;;;33.56;16.46;100568.41;5011788;28;105905;-74
